.
WxDataArchive / Data Records for 2013-11-30
2013-11-29 November 2013 2013-12-01

Data Records for Saturday, 30 November 2013

Time	Temp	Chill	HIndex	Humid	Dewpt	 Wind 	HiWind	WindDir	Rain 	Barom 
-----	----	-----	------	-----	-----	------	------	-------	-----	----- 
00:00	27.3	27.3	27.3	72	19.5	0	1	90	0.00	30.532 
00:05	27.3	27.3	27.3	72	19.5	0	1	90	0.00	30.532 
00:10	27.3	27.3	27.3	72	19.5	0	1	90	0.00	30.532 
00:15	27.5	27.5	27.5	72	19.7	0	2	90	0.00	30.531 
00:20	27.5	27.5	27.5	72	19.7	0	2	90	0.00	30.531 
00:25	27.5	27.5	27.5	72	19.7	0	2	90	0.00	30.531 
00:30	27.3	27.3	27.3	72	19.5	0	1	90	0.00	30.522 
00:35	27.3	27.3	27.3	72	19.5	0	1	90	0.00	30.522 
00:40	27.2	27.2	27.2	72	19.4	0	1	90	0.00	30.522 
00:45	27.2	27.2	27.2	72	19.4	0	1	90	0.00	30.518 
00:50	27.0	27.0	27.0	72	19.2	0	1	90	0.00	30.518 
00:55	27.0	27.0	27.0	72	19.2	0	1	90	0.00	30.518 
01:00	26.9	26.9	26.9	72	19.1	0	1	90	0.00	30.512 
01:05	26.9	26.9	26.9	72	19.1	0	1	90	0.00	30.512 
01:10	26.9	26.9	26.9	72	19.1	0	1	90	0.00	30.512 
01:15	26.9	26.9	26.9	73	19.4	0	1	90	0.00	30.503 
01:20	26.9	26.9	26.9	73	19.4	0	1	90	0.00	30.503 
01:25	26.9	26.9	26.9	73	19.4	0	1	90	0.00	30.503 
01:30	26.9	26.9	26.9	73	19.4	0	1	90	0.00	30.499 
01:35	26.7	26.7	26.7	73	19.2	0	2	90	0.00	30.499 
01:40	26.7	26.7	26.7	73	19.2	0	1	90	0.00	30.499 
01:45	26.7	26.7	26.7	73	19.2	0	2	90	0.00	30.492 
01:50	26.7	26.7	26.7	73	19.2	0	2	90	0.00	30.492 
01:55	26.7	26.7	26.7	73	19.2	0	1	90	0.00	30.492 
02:00	26.7	26.7	26.7	73	19.2	0	1	90	0.00	30.486 
02:05	26.7	26.7	26.7	73	19.2	0	2	90	0.00	30.486 
02:10	26.7	26.7	26.7	73	19.2	0	1	90	0.00	30.486 
02:15	26.7	26.7	26.7	73	19.2	0	1	90	0.00	30.485 
02:20	26.7	26.7	26.7	73	19.2	0	2	90	0.00	30.485 
02:25	26.7	26.7	26.7	73	19.2	0	1	90	0.00	30.485 
02:30	26.7	26.7	26.7	73	19.2	0	1	90	0.00	30.482 
02:35	26.7	26.7	26.7	73	19.2	0	1	90	0.00	30.482 
02:40	26.7	26.7	26.7	73	19.2	0	2	90	0.00	30.482 
02:45	26.6	26.6	26.6	73	19.1	0	2	90	0.00	30.479 
02:50	26.6	26.6	26.6	73	19.1	0	1	90	0.00	30.479 
02:55	26.6	26.6	26.6	74	19.5	0	0	---	0.00	30.479 
03:00	26.6	26.6	26.6	74	19.5	0	0	---	0.00	30.475 
03:05	26.6	26.6	26.6	74	19.5	0	0	---	0.00	30.475 
03:10	26.4	26.4	26.4	74	19.3	0	0	---	0.00	30.475 
03:15	26.4	26.4	26.4	75	19.6	0	0	---	0.00	30.480 
03:20	26.4	26.4	26.4	75	19.6	0	0	---	0.00	30.480 
03:25	26.4	26.4	26.4	75	19.6	0	1	90	0.00	30.480 
03:30	26.4	26.4	26.4	75	19.6	0	1	90	0.00	30.471 
03:35	26.4	26.4	26.4	75	19.6	0	0	---	0.00	30.471 
03:40	26.4	26.4	26.4	75	19.6	0	1	90	0.00	30.471 
03:45	26.4	26.4	26.4	75	19.6	0	1	90	0.00	30.462 
03:50	26.6	26.6	26.6	75	19.8	0	1	90	0.00	30.462 
03:55	26.7	26.7	26.7	75	19.9	0	0	---	0.00	30.462 
04:00	26.7	26.7	26.7	75	19.9	0	1	90	0.00	30.460 
04:05	26.9	26.9	26.9	75	20.1	0	1	90	0.00	30.460 
04:10	26.9	26.9	26.9	75	20.1	0	1	90	0.00	30.460 
04:15	27.0	27.0	27.0	75	20.2	0	1	90	0.00	30.453 
04:20	27.3	27.3	27.3	75	20.4	0	1	90	0.00	30.453 
04:25	27.5	27.5	27.5	74	20.3	0	2	90	0.00	30.453 
04:30	27.6	27.6	27.6	74	20.4	0	2	90	0.00	30.448 
04:35	27.8	27.8	27.8	74	20.6	0	2	90	0.00	30.448 
04:40	27.9	27.9	27.9	73	20.4	0	2	90	0.00	30.448 
04:45	28.1	28.1	28.1	73	20.6	0	2	90	0.00	30.448 
04:50	28.2	28.2	28.2	73	20.7	0	2	90	0.00	30.448 
04:55	28.4	28.4	28.4	72	20.5	0	2	90	0.00	30.448 
05:00	28.5	28.5	28.5	72	20.6	0	1	90	0.00	30.444 
05:05	28.7	28.7	28.7	72	20.8	0	2	90	0.00	30.444 
05:10	28.8	28.8	28.8	71	20.6	0	3	90	0.00	30.444 
05:15	28.8	28.8	28.8	71	20.6	0	3	90	0.00	30.441 
05:20	29.0	29.0	29.0	70	20.5	1	3	90	0.00	30.441 
05:25	29.1	29.1	29.1	70	20.6	1	3	90	0.00	30.441 
05:30	29.1	29.1	29.1	70	20.6	0	3	90	0.00	30.439 
05:35	29.1	29.1	29.1	70	20.6	1	3	90	0.00	30.439 
05:40	29.1	29.1	29.1	70	20.6	0	2	90	0.00	30.439 
05:45	29.1	29.1	29.1	70	20.6	1	4	90	0.00	30.435 
05:50	29.1	29.1	29.1	70	20.6	1	4	90	0.00	30.435 
05:55	29.1	29.1	29.1	70	20.6	0	2	90	0.00	30.435 
06:00	29.1	29.1	29.1	70	20.6	0	2	90	0.00	30.428 
06:05	29.1	29.1	29.1	70	20.6	1	3	90	0.00	30.428 
06:10	29.1	29.1	29.1	70	20.6	0	2	135	0.00	30.428 
06:15	29.0	29.0	29.0	71	20.8	0	1	135	0.00	30.423 
06:20	29.0	29.0	29.0	71	20.8	1	3	135	0.00	30.423 
06:25	29.0	29.0	29.0	71	20.8	1	5	112	0.00	30.423 
06:30	29.1	29.1	29.1	71	20.9	0	3	112	0.00	30.413 
06:35	29.1	29.1	29.1	71	20.9	1	4	112	0.00	30.413 
06:40	29.1	29.1	29.1	71	20.9	1	4	112	0.00	30.413 
06:45	29.1	29.1	29.1	71	20.9	0	2	112	0.00	30.411 
06:50	29.1	29.1	29.1	71	20.9	1	3	112	0.00	30.411 
06:55	29.1	29.1	29.1	71	20.9	0	2	112	0.00	30.411 
07:00	29.1	29.1	29.1	71	20.9	0	2	112	0.00	30.416 
07:05	29.0	29.0	29.0	72	21.1	0	1	112	0.00	30.416 
07:10	29.0	29.0	29.0	72	21.1	0	1	112	0.00	30.416 
07:15	29.0	29.0	29.0	72	21.1	0	2	112	0.00	30.424 
07:20	29.0	29.0	29.0	72	21.1	0	2	112	0.00	30.424 
07:25	28.8	28.8	28.8	72	20.9	0	2	112	0.00	30.424 
07:30	28.8	28.8	28.8	73	21.3	0	1	112	0.00	30.421 
07:35	28.8	28.8	28.8	73	21.3	0	2	112	0.00	30.421 
07:40	28.8	28.8	28.8	73	21.3	0	2	112	0.00	30.421 
07:45	28.8	28.8	28.8	73	21.3	0	1	112	0.00	30.411 
07:50	28.8	28.8	28.8	73	21.3	0	1	112	0.00	30.411 
07:55	28.8	28.8	28.8	73	21.3	0	2	112	0.00	30.411 
08:00	28.8	28.8	28.8	73	21.3	0	0	---	0.00	30.411 
08:05	28.8	28.8	28.8	73	21.3	0	1	112	0.00	30.411 
08:10	28.8	28.8	28.8	73	21.3	0	1	112	0.00	30.411 
08:15	28.8	28.8	28.8	73	21.3	0	1	112	0.00	30.407 
08:20	28.8	28.8	28.8	73	21.3	0	1	112	0.00	30.407 
08:25	28.8	28.8	28.8	73	21.3	0	1	112	0.00	30.407 
08:30	28.8	28.8	28.8	73	21.3	0	1	112	0.00	30.405 
08:35	28.8	28.8	28.8	73	21.3	0	2	112	0.00	30.405 
08:40	29.0	29.0	29.0	74	21.8	0	1	112	0.00	30.405 
08:45	29.0	29.0	29.0	74	21.8	0	1	112	0.00	30.407 
08:50	29.0	29.0	29.0	74	21.8	0	1	112	0.00	30.407 
08:55	29.1	29.1	29.1	74	21.9	0	1	112	0.00	30.407 
09:00	29.1	29.1	29.1	74	21.9	0	1	112	0.00	30.407 
09:05	29.3	29.3	29.3	74	22.1	0	2	112	0.00	30.407 
09:10	29.5	29.5	29.5	74	22.3	0	2	112	0.00	30.407 
09:15	30.1	30.1	30.1	73	22.5	0	2	112	0.00	30.398 
09:20	30.9	30.9	30.9	72	23.0	0	2	112	0.00	30.398 
09:25	31.5	31.5	31.5	71	23.2	0	3	112	0.00	30.398 
09:30	31.9	31.9	31.9	69	22.9	1	4	90	0.00	30.392 
09:35	32.1	32.1	32.1	69	23.1	0	3	90	0.00	30.392 
09:40	32.2	32.2	32.2	69	23.2	0	2	90	0.00	30.392 
09:45	32.7	32.7	32.7	69	23.7	1	3	90	0.00	30.386 
09:50	33.4	33.4	33.4	68	24.0	1	3	90	0.00	30.386 
09:55	34.1	34.1	34.1	67	24.3	1	4	90	0.00	30.386 
10:00	34.6	34.6	34.6	64	23.7	1	5	112	0.00	30.373 
10:05	34.6	34.6	34.6	64	23.7	1	4	22	0.00	30.373 
10:10	34.4	34.4	34.4	64	23.5	0	2	22	0.00	30.373 
10:15	34.1	34.1	34.1	65	23.6	0	2	22	0.00	30.368 
10:20	34.0	34.0	34.0	66	23.9	0	2	22	0.00	30.368 
10:25	34.3	34.3	34.3	67	24.5	0	2	22	0.00	30.368 
10:30	34.9	34.9	34.9	66	24.7	0	3	22	0.00	30.357 
10:35	35.8	35.8	35.8	65	25.2	0	2	45	0.00	30.357 
10:40	36.3	36.3	36.3	63	24.9	0	2	45	0.00	30.357 
10:45	36.9	36.9	36.9	62	25.1	1	2	315	0.00	30.352 
10:50	37.6	37.6	37.6	62	25.8	0	3	22	0.00	30.352 
10:55	38.2	38.2	38.2	60	25.6	1	5	112	0.00	30.352 
11:00	38.6	38.6	38.6	58	25.1	1	5	248	0.00	30.337 
11:05	38.9	38.9	38.9	58	25.4	1	4	248	0.00	30.337 
11:10	39.2	39.2	39.2	58	25.7	1	7	248	0.00	30.337 
11:15	39.5	39.5	39.5	58	26.0	0	2	248	0.00	30.327 
11:20	40.2	40.2	40.2	57	26.2	1	5	112	0.00	30.327 
11:25	40.8	40.8	40.8	56	26.3	1	3	45	0.00	30.327 
11:30	41.2	41.2	41.2	54	25.8	1	4	270	0.00	30.317 
11:35	41.5	41.5	41.5	52	25.2	1	6	248	0.00	30.317 
11:40	41.6	41.6	41.6	54	26.2	0	3	248	0.00	30.317 
11:45	41.9	41.9	41.9	52	25.6	1	3	248	0.00	30.304 
11:50	42.1	42.1	42.1	52	25.8	1	4	248	0.00	30.304 
11:55	42.2	42.2	42.2	53	26.3	1	4	248	0.00	30.304 
12:00	42.5	42.5	42.5	52	26.1	1	3	248	0.00	30.295 
12:05	42.8	42.8	42.8	53	26.9	0	2	248	0.00	30.295 
12:10	43.1	43.1	43.1	51	26.2	0	4	248	0.00	30.295 
12:15	43.5	43.5	43.5	53	27.5	0	3	248	0.00	30.282 
12:20	43.8	43.8	43.8	52	27.3	1	3	248	0.00	30.282 
12:25	44.1	44.1	44.1	51	27.1	1	4	112	0.00	30.282 
12:30	44.3	44.3	44.3	49	26.4	1	4	270	0.00	30.271 
12:35	44.3	44.3	44.3	50	26.8	1	4	248	0.00	30.271 
12:40	44.6	44.6	44.6	49	26.6	1	4	248	0.00	30.271 
12:45	44.8	44.8	44.8	49	26.8	1	2	248	0.00	30.262 
12:50	45.1	45.1	45.1	49	27.1	1	4	248	0.00	30.262 
12:55	45.2	45.2	45.2	48	26.7	1	4	248	0.00	30.262 
13:00	45.4	45.4	45.4	48	26.9	0	3	248	0.00	30.253 
13:05	45.5	45.5	45.5	47	26.5	1	4	248	0.00	30.253 
13:10	45.7	45.7	45.7	48	27.1	2	6	248	0.00	30.253 
13:15	46.0	46.0	46.0	46	26.4	2	6	248	0.00	30.244 
13:20	46.2	46.2	46.2	48	27.6	1	5	248	0.00	30.244 
13:25	46.5	46.5	46.5	48	27.9	0	3	90	0.00	30.244 
13:30	46.8	46.8	46.8	47	27.6	1	6	248	0.00	30.233 
13:35	47.0	47.0	47.0	46	27.3	1	4	248	0.00	30.233 
13:40	47.0	47.0	47.0	46	27.3	1	4	248	0.00	30.233 
13:45	47.0	47.0	47.0	46	27.3	1	3	248	0.00	30.221 
13:50	47.3	47.3	47.3	46	27.6	1	4	248	0.00	30.221 
13:55	47.6	47.6	47.6	46	27.9	1	3	248	0.00	30.221 
14:00	47.7	47.7	47.7	46	27.9	1	2	248	0.00	30.214 
14:05	47.9	47.9	47.9	46	28.1	1	5	315	0.00	30.214 
14:10	47.9	47.9	47.9	45	27.6	2	5	248	0.00	30.214 
14:15	48.0	48.0	48.0	45	27.7	1	4	248	0.00	30.203 
14:20	48.2	48.2	48.2	45	27.9	1	4	248	0.00	30.203 
14:25	48.3	48.3	48.3	45	28.0	1	5	270	0.00	30.203 
14:30	48.3	48.3	48.3	44	27.4	1	4	248	0.00	30.194 
14:35	48.6	48.6	48.6	44	27.7	1	5	248	0.00	30.194 
14:40	48.8	48.8	48.8	45	28.4	1	5	248	0.00	30.194 
14:45	48.8	48.8	48.8	44	27.9	1	4	225	0.00	30.186 
14:50	48.8	48.8	48.8	45	28.4	0	4	225	0.00	30.186 
14:55	48.8	48.8	48.8	45	28.4	0	4	225	0.00	30.186 
15:00	48.8	48.8	48.8	44	27.9	1	3	225	0.00	30.174 
15:05	48.8	48.8	48.8	45	28.4	0	2	225	0.00	30.174 
15:10	48.8	48.8	48.8	45	28.4	1	4	248	0.00	30.174 
15:15	48.9	48.9	48.9	45	28.5	1	4	248	0.00	30.170 
15:20	49.2	49.2	49.2	45	28.8	1	3	248	0.00	30.170 
15:25	49.5	49.5	49.5	44	28.5	1	3	248	0.00	30.170 
15:30	49.4	49.4	49.4	44	28.4	1	5	248	0.00	30.168 
15:35	49.2	49.2	49.2	44	28.2	0	3	270	0.00	30.168 
15:40	49.2	49.2	49.2	44	28.2	1	5	248	0.00	30.168 
15:45	49.2	49.2	49.2	45	28.8	0	5	90	0.00	30.166 
15:50	49.2	49.2	49.2	44	28.2	1	4	248	0.00	30.166 
15:55	49.1	49.1	49.1	44	28.1	1	3	248	0.00	30.166 
16:00	48.9	48.9	48.9	44	28.0	1	3	248	0.00	30.160 
16:05	48.8	48.8	48.8	45	28.4	1	5	248	0.00	30.160 
16:10	48.5	48.5	48.5	45	28.1	1	4	248	0.00	30.160 
16:15	48.2	48.2	48.2	45	27.9	1	4	292	0.00	30.154 
16:20	47.9	47.9	47.9	45	27.6	1	4	248	0.00	30.154 
16:25	47.7	47.7	47.7	45	27.4	0	3	248	0.00	30.154 
16:30	47.6	47.6	47.6	46	27.9	0	2	248	0.00	30.153 
16:35	47.3	47.3	47.3	46	27.6	0	1	248	0.00	30.153 
16:40	47.0	47.0	47.0	47	27.8	0	2	248	0.00	30.153 
16:45	46.5	46.5	46.5	47	27.4	0	1	248	0.00	30.153 
16:50	46.2	46.2	46.2	47	27.1	0	3	248	0.00	30.153 
16:55	46.0	46.0	46.0	48	27.4	0	2	248	0.00	30.153 
17:00	45.8	45.8	45.8	47	26.7	0	3	248	0.00	30.155 
17:05	45.5	45.5	45.5	48	27.0	0	2	248	0.00	30.155 
17:10	45.4	45.4	45.4	48	26.9	0	2	248	0.00	30.155 
17:15	44.9	44.9	44.9	49	26.9	0	2	248	0.00	30.155 
17:20	44.6	44.6	44.6	49	26.6	0	1	248	0.00	30.155 
17:25	44.3	44.3	44.3	50	26.8	0	1	248	0.00	30.155 
17:30	44.1	44.1	44.1	50	26.7	0	1	248	0.00	30.157 
17:35	43.8	43.8	43.8	50	26.4	0	2	248	0.00	30.157 
17:40	43.5	43.5	43.5	51	26.6	0	1	248	0.00	30.157 
17:45	43.1	43.1	43.1	51	26.2	0	0	---	0.00	30.158 
17:50	42.6	42.6	42.6	52	26.2	0	1	248	0.00	30.158 
17:55	42.2	42.2	42.2	53	26.3	0	0	---	0.00	30.158 
18:00	41.8	41.8	41.8	54	26.4	0	0	---	0.00	30.159 
18:05	41.2	41.2	41.2	55	26.3	0	0	---	0.00	30.159 
18:10	40.9	40.9	40.9	56	26.4	0	0	---	0.00	30.159 
18:15	40.5	40.5	40.5	56	26.1	0	0	---	0.00	30.160 
18:20	40.1	40.1	40.1	57	26.1	0	0	---	0.00	30.160 
18:25	39.8	39.8	39.8	58	26.2	0	0	---	0.00	30.160 
18:30	39.3	39.3	39.3	58	25.8	0	0	---	0.00	30.163 
18:35	38.9	38.9	38.9	59	25.8	0	0	---	0.00	30.163 
18:40	38.6	38.6	38.6	60	25.9	0	0	---	0.00	30.163 
18:45	38.2	38.2	38.2	60	25.6	0	0	---	0.00	30.162 
18:50	37.9	37.9	37.9	61	25.7	0	0	---	0.00	30.162 
18:55	37.8	37.8	37.8	62	26.0	0	0	---	0.00	30.162 
19:00	37.5	37.5	37.5	62	25.7	0	0	---	0.00	30.162 
19:05	37.3	37.3	37.3	62	25.5	0	0	---	0.00	30.162 
19:10	37.2	37.2	37.2	63	25.8	0	0	---	0.00	30.162 
19:15	37.2	37.2	37.2	63	25.8	0	0	---	0.00	30.162 
19:20	37.2	37.2	37.2	64	26.2	0	0	---	0.00	30.162 
19:25	37.2	37.2	37.2	63	25.8	0	0	---	0.00	30.162 
19:30	37.2	37.2	37.2	64	26.2	0	0	---	0.00	30.159 
19:35	37.2	37.2	37.2	64	26.2	0	0	---	0.00	30.159 
19:40	37.0	37.0	37.0	64	26.0	0	0	---	0.00	30.159 
19:45	36.9	36.9	36.9	64	25.9	0	0	---	0.00	30.157 
19:50	36.6	36.6	36.6	64	25.6	0	0	---	0.00	30.157 
19:55	36.3	36.3	36.3	64	25.3	0	0	---	0.00	30.157 
20:00	36.0	36.0	36.0	65	25.4	0	0	---	0.00	30.156 
20:05	35.9	35.9	35.9	66	25.7	0	0	---	0.00	30.156 
20:10	35.6	35.6	35.6	66	25.4	0	0	---	0.00	30.156 
20:15	35.5	35.5	35.5	67	25.6	0	0	---	0.00	30.155 
20:20	35.5	35.5	35.5	67	25.6	0	0	---	0.00	30.155 
20:25	35.5	35.5	35.5	67	25.6	0	0	---	0.00	30.155 
20:30	35.5	35.5	35.5	68	26.0	0	0	---	0.00	30.158 
20:35	35.5	35.5	35.5	67	25.6	0	0	---	0.00	30.158 
20:40	35.3	35.3	35.3	68	25.8	0	0	---	0.00	30.158 
20:45	35.2	35.2	35.2	68	25.7	0	0	---	0.00	30.152 
20:50	35.2	35.2	35.2	68	25.7	0	0	---	0.00	30.152 
20:55	35.0	35.0	35.0	68	25.5	0	0	---	0.00	30.152 
21:00	34.9	34.9	34.9	69	25.8	0	0	---	0.00	30.149 
21:05	34.9	34.9	34.9	69	25.8	0	0	---	0.00	30.149 
21:10	34.9	34.9	34.9	69	25.8	0	0	---	0.00	30.149 
21:15	34.7	34.7	34.7	69	25.6	0	0	---	0.00	30.141 
21:20	34.6	34.6	34.6	69	25.5	0	0	---	0.00	30.141 
21:25	34.4	34.4	34.4	70	25.6	0	0	---	0.00	30.141 
21:30	34.4	34.4	34.4	70	25.6	0	0	---	0.00	30.141 
21:35	34.3	34.3	34.3	70	25.5	0	0	---	0.00	30.141 
21:40	34.3	34.3	34.3	70	25.5	0	0	---	0.00	30.141 
21:45	34.3	34.3	34.3	71	25.9	0	0	---	0.00	30.139 
21:50	34.3	34.3	34.3	71	25.9	0	0	---	0.00	30.139 
21:55	34.3	34.3	34.3	71	25.9	0	0	---	0.00	30.139 
22:00	34.4	34.4	34.4	71	26.0	0	0	---	0.00	30.134 
22:05	34.3	34.3	34.3	71	25.9	0	0	---	0.00	30.134 
22:10	34.3	34.3	34.3	71	25.9	0	0	---	0.00	30.134 
22:15	34.3	34.3	34.3	71	25.9	0	0	---	0.00	30.127 
22:20	34.3	34.3	34.3	71	25.9	0	0	---	0.00	30.127 
22:25	34.3	34.3	34.3	71	25.9	0	0	---	0.00	30.127 
22:30	34.1	34.1	34.1	71	25.7	0	0	---	0.00	30.126 
22:35	33.8	33.8	33.8	72	25.7	0	0	---	0.00	30.126 
22:40	33.7	33.7	33.7	72	25.7	0	0	---	0.00	30.126 
22:45	33.5	33.5	33.5	72	25.5	0	0	---	0.00	30.126 
22:50	33.4	33.4	33.4	73	25.7	0	0	---	0.00	30.126 
22:55	33.2	33.2	33.2	73	25.5	0	0	---	0.00	30.126 
23:00	33.1	33.1	33.1	73	25.4	0	0	---	0.00	30.125 
23:05	32.9	32.9	32.9	73	25.2	0	0	---	0.00	30.125 
23:10	32.8	32.8	32.8	73	25.1	0	0	---	0.00	30.125 
23:15	32.5	32.5	32.5	74	25.2	0	0	---	0.00	30.120 
23:20	32.5	32.5	32.5	74	25.2	0	0	---	0.00	30.120 
23:25	32.5	32.5	32.5	75	25.5	0	0	---	0.00	30.120 
23:30	32.5	32.5	32.5	75	25.5	0	0	---	0.00	30.120 
23:35	32.5	32.5	32.5	75	25.5	0	0	---	0.00	30.120 
23:40	32.5	32.5	32.5	75	25.5	0	0	---	0.00	30.120 
23:45	32.4	32.4	32.4	76	25.7	0	0	---	0.00	30.121 
23:50	32.4	32.4	32.4	76	25.7	0	0	---	0.00	30.121 
23:55	32.4	32.4	32.4	75	25.4	0	0	---	0.00	30.121 

CoCoRaHS
IN-AL-39
A2 Web Hosting
Creative Commons License
GoDaddy
search engine by freefind advanced

loaded 2018-11-17 18:14:32 • last modified 2010-11-18 10:43:29
Privacy PolicyDisclaimer
• wx.awcolley.com is powered by PmWiki v.2002016 •
• all content (unless otherwise noted) © 2018 A W Colley